createdAt,value
2018-06-10T00:00:26.448Z,17.77
2018-06-10T00:02:55.009Z,16.77
2018-06-10T00:05:23.609Z,17.07
2018-06-10T00:07:52.214Z,17.20
2018-06-10T00:10:20.883Z,16.53
2018-06-10T00:12:49.477Z,19.20
2018-06-10T00:15:18.112Z,17.70
2018-06-10T00:17:46.697Z,17.43
2018-06-10T00:20:15.356Z,18.10
2018-06-10T00:22:43.944Z,18.30
2018-06-10T00:25:12.600Z,18.13
2018-06-10T00:27:41.271Z,18.57
2018-06-10T00:30:09.935Z,17.57
2018-06-10T00:32:38.618Z,19.50
2018-06-10T00:35:07.238Z,17.77
2018-06-10T00:37:35.831Z,17.00
2018-06-10T00:40:04.507Z,17.10
2018-06-10T00:42:33.104Z,17.03
2018-06-10T00:45:02.027Z,17.23
2018-06-10T00:47:30.625Z,18.30
2018-06-10T00:49:59.174Z,19.40
2018-06-10T00:52:27.751Z,19.73
2018-06-10T00:54:56.327Z,19.23
2018-06-10T00:57:25.020Z,19.20
2018-06-10T00:59:53.711Z,18.17
2018-06-10T01:02:22.592Z,20.17
2018-06-10T01:04:51.181Z,19.07
2018-06-10T01:07:20.055Z,18.70
2018-06-10T01:09:48.643Z,19.10
2018-06-10T01:12:17.253Z,18.93
2018-06-10T01:14:45.813Z,19.47
2018-06-10T01:17:14.435Z,18.17
2018-06-10T01:19:43.071Z,19.23
2018-06-10T01:22:11.811Z,18.60
2018-06-10T01:24:40.556Z,19.43
2018-06-10T01:27:09.474Z,18.97
2018-06-10T01:29:38.184Z,19.33
2018-06-10T01:32:06.765Z,20.23
2018-06-10T01:34:35.730Z,18.80
2018-06-10T01:37:04.320Z,19.93
2018-06-10T01:39:32.941Z,22.37
2018-06-10T01:42:01.821Z,21.90
2018-06-10T01:44:30.393Z,19.10
2018-06-10T01:46:59.069Z,22.27
2018-06-10T01:49:27.841Z,19.80
2018-06-10T01:51:56.561Z,20.73
2018-06-10T01:54:25.228Z,20.40
2018-06-10T01:56:54.096Z,19.30
2018-06-10T01:59:22.993Z,21.60
2018-06-10T02:01:51.556Z,18.97
2018-06-10T02:04:20.178Z,20.17
2018-06-10T02:06:48.756Z,19.57
2018-06-10T02:09:17.342Z,20.60
2018-06-10T02:11:46.151Z,18.50
2018-06-10T02:14:14.717Z,19.50
2018-06-10T02:16:43.363Z,20.13
2018-06-10T02:19:11.997Z,20.70
2018-06-10T02:21:40.629Z,20.60
2018-06-10T02:24:09.216Z,19.50
2018-06-10T02:26:37.876Z,19.07
2018-06-10T02:29:06.516Z,19.33
2018-06-10T02:31:35.101Z,18.60
2018-06-10T02:34:03.664Z,18.17
2018-06-10T02:36:32.399Z,19.30
2018-06-10T02:39:01.076Z,21.07
2018-06-10T02:41:29.696Z,19.53
2018-06-10T02:43:58.317Z,20.30
2018-06-10T02:46:26.902Z,21.13
2018-06-10T02:48:55.463Z,20.83
2018-06-10T02:51:24.094Z,21.80
2018-06-10T02:53:52.653Z,22.10
2018-06-10T02:56:21.272Z,22.47
2018-06-10T02:58:49.949Z,23.23
2018-06-10T03:01:18.640Z,24.00
2018-06-10T03:03:47.354Z,22.47
2018-06-10T03:06:15.904Z,21.37
2018-06-10T03:08:44.496Z,22.43
2018-06-10T03:11:13.318Z,21.70
2018-06-10T03:13:41.893Z,22.20
2018-06-10T03:16:10.443Z,21.43
2018-06-10T03:18:39.061Z,21.17
2018-06-10T03:21:07.822Z,21.90
2018-06-10T03:23:36.380Z,21.37
2018-06-10T03:26:04.953Z,21.07
2018-06-10T03:28:33.654Z,23.13
2018-06-10T03:31:02.269Z,21.93
2018-06-10T03:33:30.814Z,23.97
2018-06-10T03:35:59.624Z,21.87
2018-06-10T03:38:28.413Z,22.03
2018-06-10T03:40:57.061Z,20.73
2018-06-10T03:43:25.790Z,21.70
2018-06-10T03:45:54.491Z,22.20
2018-06-10T03:48:23.061Z,23.13
2018-06-10T03:50:51.715Z,23.87
2018-06-10T03:53:20.258Z,22.40
2018-06-10T03:55:48.845Z,22.13
2018-06-10T03:58:17.424Z,22.93
2018-06-10T04:00:46.037Z,20.70
2018-06-10T04:03:14.673Z,20.73
2018-06-10T04:05:43.277Z,21.07
2018-06-10T04:08:11.861Z,25.10
2018-06-10T04:10:40.729Z,23.70
2018-06-10T04:13:09.512Z,22.57
2018-06-10T04:15:38.320Z,21.37
2018-06-10T04:18:06.858Z,23.00
2018-06-10T04:20:35.536Z,24.10
2018-06-10T04:23:04.108Z,26.23
2018-06-10T04:25:32.716Z,25.80
2018-06-10T04:28:01.308Z,24.60
2018-06-10T04:30:29.879Z,22.63
2018-06-10T04:32:58.477Z,23.77
2018-06-10T04:35:27.287Z,24.50
2018-06-10T04:37:55.913Z,21.17
2018-06-10T04:40:24.453Z,22.30
2018-06-10T04:42:53.032Z,21.27
2018-06-10T04:45:21.587Z,18.57
2018-06-10T04:47:50.180Z,20.93
2018-06-10T04:50:18.747Z,23.03
2018-06-10T04:52:47.353Z,21.80
2018-06-10T04:55:15.916Z,20.10
2018-06-10T04:57:44.496Z,22.07
2018-06-10T05:00:13.029Z,20.10
2018-06-10T05:02:42.014Z,19.57
2018-06-10T05:05:10.608Z,21.20
2018-06-10T05:07:39.190Z,20.00
2018-06-10T05:10:07.797Z,21.57
2018-06-10T05:12:36.348Z,20.20
2018-06-10T05:15:05.064Z,21.17
2018-06-10T05:17:33.629Z,19.60
2018-06-10T05:20:02.279Z,20.67
2018-06-10T05:22:30.896Z,19.73
2018-06-10T05:24:59.505Z,18.73
2018-06-10T05:27:28.216Z,17.77
2018-06-10T05:29:56.815Z,19.30
2018-06-10T05:32:26.185Z,17.07
2018-06-10T05:34:54.784Z,17.97
2018-06-10T05:37:23.398Z,18.63
2018-06-10T05:39:52.039Z,16.47
2018-06-10T05:42:20.570Z,17.83
2018-06-10T05:44:49.267Z,18.37
2018-06-10T05:47:17.923Z,19.70
2018-06-10T05:49:46.505Z,18.50
2018-06-10T05:52:15.023Z,20.57
2018-06-10T05:54:43.740Z,18.03
2018-06-10T05:57:12.631Z,21.57
2018-06-10T05:59:41.307Z,17.37
2018-06-10T06:02:09.844Z,18.57
2018-06-10T06:04:38.425Z,17.13
2018-06-10T06:07:07.022Z,19.90
2018-06-10T06:09:35.666Z,19.93
2018-06-10T06:12:04.376Z,19.60
2018-06-10T06:14:32.949Z,17.70
2018-06-10T06:17:01.895Z,19.10
2018-06-10T06:19:30.487Z,18.67
2018-06-10T06:21:59.091Z,18.87
2018-06-10T06:24:27.840Z,17.17
2018-06-10T06:26:56.449Z,19.43
2018-06-10T06:29:25.056Z,21.53
2018-06-10T06:31:53.690Z,19.07
2018-06-10T06:34:22.236Z,22.37
2018-06-10T06:36:50.885Z,21.90
2018-06-10T06:39:19.445Z,23.03
2018-06-10T06:41:48.040Z,24.50
2018-06-10T06:44:16.589Z,24.33
2018-06-10T06:46:45.210Z,24.13
2018-06-10T06:49:13.954Z,25.53
2018-06-10T06:51:42.533Z,27.80
2018-06-10T06:54:11.117Z,31.20
2018-06-10T06:56:39.775Z,28.83
2018-06-10T06:59:08.361Z,30.57
2018-06-10T07:01:36.933Z,31.60
2018-06-10T07:04:05.633Z,34.30
2018-06-10T07:06:34.201Z,35.30
2018-06-10T07:09:02.969Z,42.03
2018-06-10T07:11:31.873Z,38.53
2018-06-10T07:14:00.521Z,40.07
2018-06-10T07:16:29.108Z,41.70
2018-06-10T07:18:58.435Z,40.80
2018-06-10T07:21:27.028Z,40.10
2018-06-10T07:23:55.672Z,38.17
2018-06-10T07:26:24.236Z,43.23
2018-06-10T07:28:54.800Z,37.23
2018-06-10T07:31:23.337Z,38.03
2018-06-10T07:33:52.464Z,42.80
2018-06-10T07:36:21.020Z,41.67
2018-06-10T07:38:49.693Z,37.67
2018-06-10T07:41:18.334Z,42.40
2018-06-10T07:43:46.896Z,43.70
2018-06-10T07:46:15.538Z,37.73
2018-06-10T07:48:44.094Z,43.30
2018-06-10T07:51:12.717Z,41.07
2018-06-10T07:53:41.281Z,43.60
2018-06-10T07:56:09.932Z,39.93
2018-06-10T07:58:38.536Z,40.83
2018-06-10T08:01:07.170Z,41.63
2018-06-10T08:03:35.985Z,42.00
2018-06-10T08:06:04.589Z,41.63
2018-06-10T08:08:33.140Z,42.60
2018-06-10T08:11:01.753Z,43.60
2018-06-10T08:13:30.375Z,40.13
2018-06-10T08:15:59.001Z,40.30
2018-06-10T08:18:27.613Z,42.57
2018-06-10T08:20:56.225Z,43.50
2018-06-10T08:23:25.549Z,45.40
2018-06-10T08:25:54.117Z,45.80
2018-06-10T08:28:22.750Z,46.23
2018-06-10T08:30:51.272Z,47.47
2018-06-10T08:33:19.981Z,44.40
2018-06-10T08:35:48.581Z,47.80
2018-06-10T08:38:17.203Z,45.60
2018-06-10T08:40:45.773Z,47.17
2018-06-10T08:43:14.376Z,52.40
2018-06-10T08:45:43.017Z,49.17
2018-06-10T08:48:11.613Z,50.73
2018-06-10T08:50:40.237Z,58.70
2018-06-10T08:53:08.832Z,57.53
2018-06-10T08:55:37.464Z,58.60
2018-06-10T08:58:06.193Z,59.10
2018-06-10T09:00:34.849Z,58.07
2018-06-10T09:03:03.435Z,61.87
2018-06-10T09:05:32.084Z,62.50
2018-06-10T09:08:00.679Z,61.13
2018-06-10T09:10:29.457Z,62.10
2018-06-10T09:12:58.228Z,59.70
2018-06-10T09:15:26.863Z,59.83
2018-06-10T09:17:55.470Z,60.80
2018-06-10T09:20:24.414Z,60.43
2018-06-10T09:22:52.966Z,64.63
2018-06-10T09:25:21.594Z,63.60
2018-06-10T09:27:50.183Z,67.77
2018-06-10T09:30:18.814Z,63.20
2018-06-10T09:32:47.420Z,64.90
2018-06-10T09:35:16.114Z,64.43
2018-06-10T09:37:44.709Z,63.63
2018-06-10T09:40:13.313Z,64.23
2018-06-10T09:42:41.959Z,61.20
2018-06-10T09:45:10.681Z,64.50
2018-06-10T09:47:39.304Z,65.23
2018-06-10T09:50:07.921Z,66.23
2018-06-10T09:52:36.540Z,66.73
2018-06-10T09:55:05.160Z,63.40
2018-06-10T09:57:33.841Z,65.97
2018-06-10T10:00:02.482Z,63.87
2018-06-10T10:02:31.112Z,66.40
2018-06-10T10:04:59.688Z,64.60
2018-06-10T10:07:28.334Z,69.67
2018-06-10T10:09:57.188Z,69.57
2018-06-10T10:12:25.813Z,66.37
2018-06-10T10:14:54.525Z,65.70
2018-06-10T10:17:23.228Z,63.73
2018-06-10T10:19:51.799Z,63.73
2018-06-10T10:22:20.473Z,66.83
2018-06-10T10:24:49.073Z,65.47
2018-06-10T10:27:17.700Z,66.80
2018-06-10T10:29:46.429Z,67.20
2018-06-10T10:32:15.262Z,66.50
2018-06-10T10:34:43.870Z,64.97
2018-06-10T10:37:12.441Z,65.57
2018-06-10T10:39:41.107Z,68.53
2018-06-10T10:42:09.709Z,67.40
2018-06-10T10:44:38.357Z,68.00
2018-06-10T10:47:06.976Z,69.27
2018-06-10T10:49:35.805Z,69.93
2018-06-10T10:52:04.599Z,66.80
2018-06-10T10:54:33.251Z,68.67
2018-06-10T10:57:02.136Z,67.23
2018-06-10T10:59:30.819Z,67.77
2018-06-10T11:01:59.437Z,70.17
2018-06-10T11:04:28.227Z,71.27
2018-06-10T11:06:56.785Z,68.50
2018-06-10T11:09:25.573Z,66.87
2018-06-10T11:11:54.136Z,71.10
2018-06-10T11:14:22.762Z,71.30
2018-06-10T11:16:51.340Z,70.07
2018-06-10T11:19:19.985Z,66.53
2018-06-10T11:21:48.665Z,68.67
2018-06-10T11:24:17.288Z,70.47
2018-06-10T11:26:45.935Z,70.33
2018-06-10T11:29:14.604Z,67.77
2018-06-10T11:31:43.431Z,70.30
2018-06-10T11:34:12.026Z,72.57
2018-06-10T11:36:40.756Z,67.77
2018-06-10T11:39:09.820Z,69.47
2018-06-10T11:41:38.429Z,69.50
2018-06-10T11:44:07.005Z,67.00
2018-06-10T11:46:35.697Z,66.60
2018-06-10T11:49:04.382Z,71.33
2018-06-10T11:51:33.108Z,66.60
2018-06-10T11:54:01.703Z,64.83
2018-06-10T11:56:30.320Z,74.30
2018-06-10T11:58:58.928Z,67.00
2018-06-10T12:01:27.610Z,71.83
2018-06-10T12:03:56.286Z,67.10
2018-06-10T12:06:24.936Z,69.53
2018-06-10T12:08:53.487Z,66.67
2018-06-10T12:11:22.116Z,65.87
2018-06-10T12:13:50.762Z,65.57
2018-06-10T12:16:19.366Z,70.50
2018-06-10T12:18:48.041Z,66.53
2018-06-10T12:21:16.697Z,68.97
2018-06-10T12:23:45.259Z,69.20
2018-06-10T12:26:13.957Z,67.30
2018-06-10T12:28:42.630Z,71.30
2018-06-10T12:31:11.259Z,69.80
2018-06-10T12:33:39.896Z,71.43
2018-06-10T12:36:08.468Z,67.57
2018-06-10T12:38:37.170Z,65.27
2018-06-10T12:41:05.832Z,62.13
2018-06-10T12:43:34.483Z,62.70
2018-06-10T12:46:03.092Z,62.83
2018-06-10T12:48:32.025Z,66.67
2018-06-10T12:51:00.668Z,61.67
2018-06-10T12:53:29.293Z,62.07
2018-06-10T12:55:57.881Z,64.40
2018-06-10T12:58:26.600Z,71.27
2018-06-10T13:00:55.296Z,66.30
2018-06-10T13:03:23.928Z,61.00
2018-06-10T13:05:52.584Z,60.70
2018-06-10T13:08:21.222Z,62.20
2018-06-10T13:10:49.836Z,59.57
2018-06-10T13:13:18.452Z,56.10
2018-06-10T13:15:47.056Z,55.13
2018-06-10T13:18:15.784Z,53.80
2018-06-10T13:20:44.403Z,52.87
2018-06-10T13:23:13.065Z,52.63
2018-06-10T13:25:41.700Z,50.30
2018-06-10T13:28:10.370Z,47.73
2018-06-10T13:30:38.973Z,44.53
2018-06-10T13:33:07.570Z,46.93
2018-06-10T13:35:36.271Z,47.83
2018-06-10T13:38:05.128Z,45.10
2018-06-10T13:40:33.759Z,52.10
2018-06-10T13:43:02.555Z,49.33
2018-06-10T13:45:31.169Z,49.77
2018-06-10T13:47:59.739Z,50.27
2018-06-10T13:50:28.384Z,46.17
2018-06-10T13:52:57.288Z,47.30
2018-06-10T13:55:25.900Z,45.50
2018-06-10T13:57:54.543Z,43.93
2018-06-10T14:00:23.113Z,46.67
2018-06-10T14:02:51.682Z,47.50
2018-06-10T14:05:20.431Z,47.63
2018-06-10T14:07:49.034Z,49.40
2018-06-10T14:10:17.682Z,43.93
2018-06-10T14:12:46.259Z,43.60
2018-06-10T14:15:14.876Z,40.87
2018-06-10T14:17:43.451Z,36.67
2018-06-10T14:20:12.127Z,34.23
2018-06-10T14:22:40.728Z,33.00
2018-06-10T14:25:09.364Z,31.60
2018-06-10T14:27:37.921Z,30.50
2018-06-10T14:30:07.997Z,31.97
2018-06-10T14:32:36.667Z,30.97
2018-06-10T14:35:05.288Z,27.77
2018-06-10T14:37:33.906Z,28.10
2018-06-10T14:40:02.458Z,28.10
2018-06-10T14:42:31.051Z,24.30
2018-06-10T14:45:00.363Z,24.77
2018-06-10T14:47:28.977Z,26.43
2018-06-10T14:49:57.813Z,28.30
2018-06-10T14:52:26.435Z,25.90
2018-06-10T14:54:55.088Z,27.50
2018-06-10T14:57:23.693Z,25.07
2018-06-10T14:59:52.511Z,27.07
2018-06-10T15:02:21.252Z,26.70
2018-06-10T15:04:50.057Z,28.90
2018-06-10T15:07:18.687Z,27.07
2018-06-10T15:09:47.220Z,26.20
2018-06-10T15:12:15.851Z,28.33
2018-06-10T15:14:44.519Z,28.70
2018-06-10T15:17:13.144Z,30.90
2018-06-10T15:19:41.736Z,28.70
2018-06-10T15:22:10.430Z,33.03
2018-06-10T15:24:38.990Z,30.17
2018-06-10T15:27:07.833Z,28.23
2018-06-10T15:29:36.459Z,27.60
2018-06-10T15:32:05.154Z,29.27
2018-06-10T15:34:33.754Z,26.87
2018-06-10T15:37:02.357Z,27.93
2018-06-10T15:39:30.910Z,26.17
2018-06-10T15:41:59.590Z,30.03
2018-06-10T15:44:28.251Z,27.27
2018-06-10T15:46:56.866Z,24.60
2018-06-10T15:49:25.428Z,27.73
2018-06-10T15:51:54.079Z,26.83
2018-06-10T15:54:22.714Z,26.07
2018-06-10T15:56:51.333Z,26.07
2018-06-10T15:59:20.110Z,25.63
2018-06-10T16:01:48.716Z,26.17
2018-06-10T16:04:17.349Z,26.03
2018-06-10T16:06:45.932Z,24.87
2018-06-10T16:09:14.825Z,24.87
2018-06-10T16:11:43.452Z,25.13
2018-06-10T16:14:12.038Z,23.23
2018-06-10T16:16:40.624Z,22.53
2018-06-10T16:19:09.232Z,21.47
2018-06-10T16:21:37.941Z,20.30
2018-06-10T16:24:06.629Z,20.07
2018-06-10T16:26:35.220Z,20.67
2018-06-10T16:29:04.061Z,19.67
2018-06-10T16:31:32.924Z,21.30
2018-06-10T16:34:01.945Z,20.30
2018-06-10T16:36:30.538Z,19.17
2018-06-10T16:38:59.200Z,22.63
2018-06-10T16:41:27.854Z,20.00
2018-06-10T16:43:56.495Z,18.50
2018-06-10T16:46:25.332Z,19.30
2018-06-10T16:48:54.017Z,18.80
2018-06-10T16:51:22.601Z,19.87
2018-06-10T16:53:51.240Z,19.47
2018-06-10T16:56:19.838Z,17.60
2018-06-10T16:58:48.416Z,21.53
2018-06-10T17:01:17.075Z,19.70
2018-06-10T17:03:45.922Z,21.47
2018-06-10T17:06:14.590Z,20.80
2018-06-10T17:08:43.144Z,23.30
2018-06-10T17:11:11.794Z,21.90
2018-06-10T17:13:40.385Z,18.70
2018-06-10T17:16:09.016Z,20.73
2018-06-10T17:18:37.740Z,20.10
2018-06-10T17:21:06.443Z,19.70
2018-06-10T17:23:35.044Z,19.67
2018-06-10T17:26:03.687Z,20.60
2018-06-10T17:28:32.265Z,22.83
2018-06-10T17:31:01.007Z,20.60
2018-06-10T17:33:29.604Z,18.40
2018-06-10T17:35:58.262Z,21.20
2018-06-10T17:38:26.872Z,20.70
2018-06-10T17:40:55.546Z,21.33
2018-06-10T17:43:24.204Z,21.90
2018-06-10T17:45:52.850Z,19.70
2018-06-10T17:48:21.574Z,19.70
2018-06-10T17:50:50.203Z,19.03
2018-06-10T17:53:18.825Z,19.83
2018-06-10T17:55:47.416Z,17.57
2018-06-10T17:58:16.017Z,17.47
2018-06-10T18:00:44.638Z,24.87
2018-06-10T18:03:13.270Z,20.47
2018-06-10T18:05:41.963Z,18.97
2018-06-10T18:08:10.582Z,18.47
2018-06-10T18:10:39.206Z,17.27
2018-06-10T18:13:07.934Z,17.60
2018-06-10T18:15:36.910Z,17.43
2018-06-10T18:18:05.676Z,17.37
2018-06-10T18:20:34.368Z,19.27
2018-06-10T18:23:03.058Z,17.30
2018-06-10T18:25:31.805Z,16.00
2018-06-10T18:28:00.472Z,15.50
2018-06-10T18:30:29.103Z,16.17
2018-06-10T18:32:57.921Z,14.43
2018-06-10T18:35:26.538Z,14.50
2018-06-10T18:37:55.368Z,14.03
2018-06-10T18:40:23.990Z,16.07
2018-06-10T18:42:52.736Z,14.97
2018-06-10T18:45:21.440Z,14.17
2018-06-10T18:47:50.082Z,14.33
2018-06-10T18:50:18.785Z,13.87
2018-06-10T18:52:47.364Z,13.23
2018-06-10T18:55:15.985Z,15.30
2018-06-10T18:57:44.802Z,15.67
2018-06-10T19:00:13.457Z,14.93
2018-06-10T19:02:42.040Z,14.90
2018-06-10T19:05:10.866Z,13.57
2018-06-10T19:07:39.871Z,14.73
2018-06-10T19:10:08.513Z,13.77
2018-06-10T19:12:37.175Z,14.37
2018-06-10T19:15:06.109Z,14.27
2018-06-10T19:17:34.727Z,15.13
2018-06-10T19:20:03.447Z,14.07
2018-06-10T19:22:32.174Z,14.93
2018-06-10T19:25:01.038Z,15.87
2018-06-10T19:27:29.818Z,16.77
2018-06-10T19:29:58.392Z,14.20
2018-06-10T19:32:27.009Z,17.40
2018-06-10T19:34:55.674Z,13.80
2018-06-10T19:37:24.424Z,15.67
2018-06-10T19:39:53.197Z,16.00
2018-06-10T19:42:21.876Z,16.00
2018-06-10T19:44:50.484Z,14.60
2018-06-10T19:47:19.089Z,15.57
2018-06-10T19:49:48.762Z,16.40
2018-06-10T19:52:17.381Z,16.77
2018-06-10T19:54:46.078Z,14.17
2018-06-10T19:57:14.954Z,16.27
2018-06-10T19:59:43.620Z,16.63
2018-06-10T20:02:12.306Z,17.80
2018-06-10T20:04:41.006Z,21.03
2018-06-10T20:07:09.693Z,35.80
2018-06-10T20:09:38.649Z,30.47
2018-06-10T20:12:07.341Z,53.77
2018-06-10T20:14:36.037Z,43.17
2018-06-10T20:17:04.832Z,17.60
2018-06-10T20:19:33.432Z,17.07
2018-06-10T20:22:02.268Z,21.67
2018-06-10T20:24:30.916Z,17.40
2018-06-10T20:26:59.637Z,17.80
2018-06-10T20:29:28.314Z,17.37
2018-06-10T20:31:57.092Z,21.00
2018-06-10T20:34:25.700Z,17.03
2018-06-10T20:36:54.375Z,15.60
2018-06-10T20:39:22.983Z,16.67
2018-06-10T20:41:51.763Z,14.90
2018-06-10T20:44:20.393Z,16.07
2018-06-10T20:46:49.344Z,16.80
2018-06-10T20:49:18.096Z,17.00
2018-06-10T20:51:46.895Z,16.80
2018-06-10T20:54:15.752Z,16.10
2018-06-10T20:56:44.365Z,15.93
2018-06-10T20:59:13.150Z,15.97
2018-06-10T21:01:41.809Z,17.00
2018-06-10T21:04:10.448Z,17.87
2018-06-10T21:06:39.073Z,16.67
2018-06-10T21:09:08.885Z,16.90
2018-06-10T21:11:37.474Z,19.03
2018-06-10T21:14:06.192Z,18.37
2018-06-10T21:16:34.792Z,16.70
2018-06-10T21:19:03.421Z,17.80
2018-06-10T21:21:32.097Z,17.37
2018-06-10T21:24:00.769Z,16.20
2018-06-10T21:26:29.532Z,20.87
2018-06-10T21:28:58.196Z,17.37
2018-06-10T21:31:26.780Z,16.77
2018-06-10T21:33:55.801Z,15.20
2018-06-10T21:36:24.449Z,16.50
2018-06-10T21:38:53.029Z,15.00
2018-06-10T21:41:21.625Z,16.00
2018-06-10T21:43:50.241Z,15.57
2018-06-10T21:46:18.820Z,15.70
2018-06-10T21:48:47.436Z,16.83
2018-06-10T21:51:16.190Z,16.33
2018-06-10T21:53:44.758Z,18.30
2018-06-10T21:56:13.410Z,17.33
2018-06-10T21:58:41.998Z,17.87
2018-06-10T22:01:10.798Z,15.03
2018-06-10T22:03:39.368Z,19.63
2018-06-10T22:06:08.034Z,16.57
2018-06-10T22:08:36.701Z,14.43
2018-06-10T22:11:05.357Z,15.93
2018-06-10T22:13:34.087Z,16.27
2018-06-10T22:16:02.829Z,17.40
2018-06-10T22:18:32.457Z,17.40
2018-06-10T22:21:01.006Z,17.20
2018-06-10T22:23:29.727Z,17.00
2018-06-10T22:25:58.457Z,19.10
2018-06-10T22:28:27.143Z,16.80
2018-06-10T22:30:55.709Z,16.97
2018-06-10T22:33:24.320Z,16.57
2018-06-10T22:35:52.869Z,17.33
2018-06-10T22:38:21.456Z,16.30
2018-06-10T22:40:50.016Z,16.50
2018-06-10T22:43:18.593Z,15.47
2018-06-10T22:45:47.161Z,16.40
2018-06-10T22:48:15.853Z,15.73
2018-06-10T22:50:44.737Z,15.60
2018-06-10T22:55:33.553Z,16.50
2018-06-10T22:58:02.439Z,18.23
2018-06-10T23:00:31.285Z,16.77
2018-06-10T23:03:00.208Z,16.20
2018-06-10T23:05:28.803Z,16.07
2018-06-10T23:07:57.377Z,16.33
2018-06-10T23:10:26.261Z,17.20
2018-06-10T23:12:54.945Z,19.20
2018-06-10T23:15:23.579Z,18.10
2018-06-10T23:17:52.445Z,18.53
2018-06-10T23:20:21.058Z,19.20
2018-06-10T23:22:49.627Z,18.37
2018-06-10T23:25:18.549Z,19.53
2018-06-10T23:27:47.091Z,21.23
2018-06-10T23:30:15.720Z,21.20
2018-06-10T23:32:44.321Z,21.27
2018-06-10T23:35:13.032Z,17.47
2018-06-10T23:37:41.605Z,18.97
2018-06-10T23:40:10.361Z,22.07
2018-06-10T23:42:38.958Z,20.37
2018-06-10T23:45:07.580Z,19.43
2018-06-10T23:47:36.173Z,18.93
2018-06-10T23:50:04.731Z,17.90
2018-06-10T23:52:33.338Z,18.47
2018-06-10T23:55:01.896Z,17.47
2018-06-10T23:57:30.532Z,20.30
2018-06-10T23:59:59.089Z,21.17
